sensor_id;sensor_type;location;lat;lon;timestamp;pressure;altitude;pressure_sealevel;temperature;humidity
74103;BME280;62853;46.166;3.640;2023-05-01T00:02:25;101566.31;;;12.70;100.00
74103;BME280;62853;46.166;3.640;2023-05-01T00:04:51;101563.59;;;12.72;100.00
74103;BME280;62853;46.166;3.640;2023-05-01T00:07:16;101561.19;;;12.67;100.00
74103;BME280;62853;46.166;3.640;2023-05-01T00:09:42;101563.00;;;12.67;100.00
74103;BME280;62853;46.166;3.640;2023-05-01T00:12:07;101552.56;;;12.63;100.00
74103;BME280;62853;46.166;3.640;2023-05-01T00:14:34;101544.66;;;12.63;100.00
74103;BME280;62853;46.166;3.640;2023-05-01T00:17:00;101546.41;;;12.63;100.00
74103;BME280;62853;46.166;3.640;2023-05-01T00:19:25;101545.47;;;12.64;100.00
74103;BME280;62853;46.166;3.640;2023-05-01T00:21:50;101548.06;;;12.65;100.00
74103;BME280;62853;46.166;3.640;2023-05-01T00:24:17;101546.41;;;12.63;100.00
74103;BME280;62853;46.166;3.640;2023-05-01T00:26:42;101540.13;;;12.65;100.00
74103;BME280;62853;46.166;3.640;2023-05-01T00:29:08;101541.72;;;12.68;100.00
74103;BME280;62853;46.166;3.640;2023-05-01T00:31:34;101535.06;;;12.61;100.00
74103;BME280;62853;46.166;3.640;2023-05-01T00:33:59;101536.94;;;12.59;100.00
74103;BME280;62853;46.166;3.640;2023-05-01T00:36:25;101526.00;;;12.49;100.00
74103;BME280;62853;46.166;3.640;2023-05-01T00:38:50;101526.44;;;12.57;100.00
74103;BME280;62853;46.166;3.640;2023-05-01T00:41:16;101526.53;;;12.56;100.00
74103;BME280;62853;46.166;3.640;2023-05-01T00:43:41;101522.59;;;12.47;100.00
74103;BME280;62853;46.166;3.640;2023-05-01T00:46:07;101529.81;;;12.43;100.00
74103;BME280;62853;46.166;3.640;2023-05-01T00:48:34;101518.28;;;12.44;100.00
74103;BME280;62853;46.166;3.640;2023-05-01T00:51:00;101521.03;;;12.43;100.00
74103;BME280;62853;46.166;3.640;2023-05-01T00:53:29;101512.66;;;12.35;100.00
74103;BME280;62853;46.166;3.640;2023-05-01T00:55:55;101517.69;;;12.39;100.00
74103;BME280;62853;46.166;3.640;2023-05-01T00:58:22;101503.78;;;12.36;100.00
74103;BME280;62853;46.166;3.640;2023-05-01T01:00:48;101504.97;;;12.30;100.00
74103;BME280;62853;46.166;3.640;2023-05-01T01:03:14;101491.34;;;12.38;100.00
74103;BME280;62853;46.166;3.640;2023-05-01T01:05:48;101493.78;;;12.25;100.00
74103;BME280;62853;46.166;3.640;2023-05-01T01:08:23;101494.25;;;12.33;100.00
74103;BME280;62853;46.166;3.640;2023-05-01T01:11:08;101486.56;;;12.28;100.00
74103;BME280;62853;46.166;3.640;2023-05-01T01:14:07;101484.69;;;12.31;100.00
74103;BME280;62853;46.166;3.640;2023-05-01T01:16:40;101481.28;;;12.28;100.00
74103;BME280;62853;46.166;3.640;2023-05-01T01:21:58;101473.91;;;12.18;100.00
74103;BME280;62853;46.166;3.640;2023-05-01T01:35:45;101459.94;;;11.98;100.00
74103;BME280;62853;46.166;3.640;2023-05-01T01:38:20;101457.84;;;12.05;100.00
74103;BME280;62853;46.166;3.640;2023-05-01T01:40:56;101450.53;;;12.10;100.00
74103;BME280;62853;46.166;3.640;2023-05-01T01:43:23;101436.78;;;12.03;100.00
74103;BME280;62853;46.166;3.640;2023-05-01T01:45:57;101432.03;;;12.10;100.00
74103;BME280;62853;46.166;3.640;2023-05-01T01:48:30;101432.66;;;12.15;100.00
74103;BME280;62853;46.166;3.640;2023-05-01T01:50:57;101438.25;;;12.09;100.00
74103;BME280;62853;46.166;3.640;2023-05-01T01:53:25;101434.59;;;12.12;100.00
74103;BME280;62853;46.166;3.640;2023-05-01T01:55:53;101424.13;;;12.10;100.00
74103;BME280;62853;46.166;3.640;2023-05-01T01:58:20;101438.84;;;12.14;100.00
74103;BME280;62853;46.166;3.640;2023-05-01T02:00:51;101427.78;;;12.07;100.00
74103;BME280;62853;46.166;3.640;2023-05-01T02:03:18;101427.88;;;12.06;100.00
74103;BME280;62853;46.166;3.640;2023-05-01T02:05:45;101420.03;;;12.04;100.00
74103;BME280;62853;46.166;3.640;2023-05-01T02:08:12;101415.91;;;11.99;100.00
74103;BME280;62853;46.166;3.640;2023-05-01T02:10:40;101412.41;;;11.98;100.00
74103;BME280;62853;46.166;3.640;2023-05-01T02:13:06;101414.50;;;11.91;100.00
74103;BME280;62853;46.166;3.640;2023-05-01T02:15:33;101415.91;;;11.99;100.00
74103;BME280;62853;46.166;3.640;2023-05-01T02:18:01;101407.66;;;11.87;100.00
74103;BME280;62853;46.166;3.640;2023-05-01T02:20:28;101410.00;;;11.94;100.00
74103;BME280;62853;46.166;3.640;2023-05-01T02:22:55;101407.97;;;11.99;100.00
74103;BME280;62853;46.166;3.640;2023-05-01T02:25:26;101405.50;;;11.96;100.00
74103;BME280;62853;46.166;3.640;2023-05-01T02:27:56;101405.59;;;11.94;100.00
74103;BME280;62853;46.166;3.640;2023-05-01T02:30:24;101401.44;;;11.88;100.00
74103;BME280;62853;46.166;3.640;2023-05-01T02:32:49;101396.66;;;11.97;100.00
74103;BME280;62853;46.166;3.640;2023-05-01T02:35:15;101397.88;;;11.89;100.00
74103;BME280;62853;46.166;3.640;2023-05-01T02:37:41;101388.88;;;11.94;100.00
74103;BME280;62853;46.166;3.640;2023-05-01T02:40:07;101393.66;;;11.85;100.00
74103;BME280;62853;46.166;3.640;2023-05-01T02:42:33;101390.03;;;11.88;100.00
74103;BME280;62853;46.166;3.640;2023-05-01T02:45:09;101388.22;;;11.88;100.00
74103;BME280;62853;46.166;3.640;2023-05-01T02:47:39;101379.53;;;11.86;100.00
74103;BME280;62853;46.166;3.640;2023-05-01T02:50:06;101388.56;;;11.82;100.00
74103;BME280;62853;46.166;3.640;2023-05-01T02:52:33;101378.69;;;11.86;100.00
74103;BME280;62853;46.166;3.640;2023-05-01T02:55:00;101380.47;;;11.85;100.00
74103;BME280;62853;46.166;3.640;2023-05-01T02:57:27;101372.00;;;11.79;100.00
74103;BME280;62853;46.166;3.640;2023-05-01T02:59:53;101362.00;;;11.85;100.00
74103;BME280;62853;46.166;3.640;2023-05-01T03:02:18;101360.16;;;11.87;100.00
74103;BME280;62853;46.166;3.640;2023-05-01T03:04:43;101364.09;;;11.79;100.00
74103;BME280;62853;46.166;3.640;2023-05-01T03:07:12;101363.09;;;11.81;100.00
74103;BME280;62853;46.166;3.640;2023-05-01T03:09:37;101360.69;;;11.77;100.00
74103;BME280;62853;46.166;3.640;2023-05-01T03:12:03;101355.41;;;11.77;100.00
74103;BME280;62853;46.166;3.640;2023-05-01T03:14:28;101351.38;;;11.69;100.00
74103;BME280;62853;46.166;3.640;2023-05-01T03:16:54;101344.84;;;11.77;100.00
74103;BME280;62853;46.166;3.640;2023-05-01T03:19:20;101344.94;;;11.75;100.00
74103;BME280;62853;46.166;3.640;2023-05-01T03:21:45;101343.41;;;11.71;100.00
74103;BME280;62853;46.166;3.640;2023-05-01T03:24:10;101340.59;;;11.74;100.00
74103;BME280;62853;46.166;3.640;2023-05-01T03:26:36;101335.31;;;11.74;100.00
74103;BME280;62853;46.166;3.640;2023-05-01T03:29:02;101335.47;;;11.71;100.00
74103;BME280;62853;46.166;3.640;2023-05-01T03:31:27;101329.44;;;11.69;100.00
74103;BME280;62853;46.166;3.640;2023-05-01T03:33:53;101330.03;;;11.57;100.00
74103;BME280;62853;46.166;3.640;2023-05-01T03:36:18;101324.84;;;11.55;100.00
74103;BME280;62853;46.166;3.640;2023-05-01T03:38:44;101326.25;;;11.62;100.00
74103;BME280;62853;46.166;3.640;2023-05-01T03:41:11;101324.94;;;11.53;100.00
74103;BME280;62853;46.166;3.640;2023-05-01T03:43:36;101322.31;;;11.53;100.00
74103;BME280;62853;46.166;3.640;2023-05-01T03:46:02;101322.06;;;11.58;100.00
74103;BME280;62853;46.166;3.640;2023-05-01T03:48:27;101325.56;;;11.59;100.00
74103;BME280;62853;46.166;3.640;2023-05-01T03:50:52;101320.81;;;11.48;100.00
74103;BME280;62853;46.166;3.640;2023-05-01T03:53:18;101318.72;;;11.54;100.00
74103;BME280;62853;46.166;3.640;2023-05-01T03:55:43;101313.66;;;11.50;100.00
74103;BME280;62853;46.166;3.640;2023-05-01T03:58:09;101307.00;;;11.43;100.00
74103;BME280;62853;46.166;3.640;2023-05-01T04:00:35;101315.34;;;11.35;100.00
74103;BME280;62853;46.166;3.640;2023-05-01T04:03:01;101311.28;;;11.45;100.00
74103;BME280;62853;46.166;3.640;2023-05-01T04:05:26;101304.53;;;11.40;100.00
74103;BME280;62853;46.166;3.640;2023-05-01T04:07:51;101311.59;;;11.39;100.00
74103;BME280;62853;46.166;3.640;2023-05-01T04:10:17;101307.56;;;11.32;100.00
74103;BME280;62853;46.166;3.640;2023-05-01T04:12:42;101308.56;;;11.29;100.00
74103;BME280;62853;46.166;3.640;2023-05-01T04:15:08;101311.69;;;11.20;100.00
74103;BME280;62853;46.166;3.640;2023-05-01T04:17:37;101305.94;;;11.12;100.00
74103;BME280;62853;46.166;3.640;2023-05-01T04:20:03;101308.72;;;11.09;100.00
74103;BME280;62853;46.166;3.640;2023-05-01T04:22:30;101312.59;;;11.19;100.00
74103;BME280;62853;46.166;3.640;2023-05-01T04:24:55;101322.38;;;11.17;100.00
74103;BME280;62853;46.166;3.640;2023-05-01T04:27:21;101325.22;;;11.12;100.00
74103;BME280;62853;46.166;3.640;2023-05-01T04:29:46;101324.13;;;10.99;100.00
74103;BME280;62853;46.166;3.640;2023-05-01T04:32:12;101316.69;;;11.07;100.00
74103;BME280;62853;46.166;3.640;2023-05-01T04:34:37;101325.84;;;11.00;100.00
74103;BME280;62853;46.166;3.640;2023-05-01T04:37:03;101326.59;;;11.02;100.00
74103;BME280;62853;46.166;3.640;2023-05-01T04:39:33;101323.41;;;10.95;100.00
74103;BME280;62853;46.166;3.640;2023-05-01T04:42:00;101316.22;;;10.99;100.00
74103;BME280;62853;46.166;3.640;2023-05-01T04:44:26;101320.16;;;10.90;100.00
74103;BME280;62853;46.166;3.640;2023-05-01T04:46:51;101323.34;;;10.97;100.00
74103;BME280;62853;46.166;3.640;2023-05-01T04:49:17;101312.50;;;11.03;100.00
74103;BME280;62853;46.166;3.640;2023-05-01T04:51:42;101314.66;;;10.95;100.00
74103;BME280;62853;46.166;3.640;2023-05-01T04:54:07;101310.88;;;11.01;100.00
74103;BME280;62853;46.166;3.640;2023-05-01T04:56:33;101320.50;;;11.02;100.00
74103;BME280;62853;46.166;3.640;2023-05-01T04:58:58;101317.16;;;10.98;100.00
74103;BME280;62853;46.166;3.640;2023-05-01T05:01:23;101315.84;;;11.07;100.00
74103;BME280;62853;46.166;3.640;2023-05-01T05:03:49;101315.16;;;11.03;100.00
74103;BME280;62853;46.166;3.640;2023-05-01T05:06:14;101308.41;;;11.15;100.00
74103;BME280;62853;46.166;3.640;2023-05-01T05:08:40;101313.00;;;11.11;100.00
74103;BME280;62853;46.166;3.640;2023-05-01T05:11:05;101309.03;;;11.20;100.00
74103;BME280;62853;46.166;3.640;2023-05-01T05:13:31;101307.66;;;11.30;100.00
74103;BME280;62853;46.166;3.640;2023-05-01T05:15:56;101312.75;;;11.33;100.00
74103;BME280;62853;46.166;3.640;2023-05-01T05:18:22;101313.31;;;11.40;100.00
74103;BME280;62853;46.166;3.640;2023-05-01T05:20:47;101310.75;;;11.39;100.00
74103;BME280;62853;46.166;3.640;2023-05-01T05:23:12;101308.81;;;11.42;100.00
74103;BME280;62853;46.166;3.640;2023-05-01T05:25:38;101308.81;;;11.42;100.00
74103;BME280;62853;46.166;3.640;2023-05-01T05:28:03;101311.84;;;11.52;100.00
74103;BME280;62853;46.166;3.640;2023-05-01T05:30:29;101306.00;;;11.63;100.00
74103;BME280;62853;46.166;3.640;2023-05-01T05:32:54;101307.19;;;11.57;100.00
74103;BME280;62853;46.166;3.640;2023-05-01T05:35:20;101307.66;;;11.81;100.00
74103;BME280;62853;46.166;3.640;2023-05-01T05:37:46;101308.91;;;11.91;100.00
74103;BME280;62853;46.166;3.640;2023-05-01T05:40:11;101303.59;;;12.09;100.00
74103;BME280;62853;46.166;3.640;2023-05-01T05:42:37;101302.25;;;12.18;100.00
74103;BME280;62853;46.166;3.640;2023-05-01T05:45:03;101300.47;;;12.34;100.00
74103;BME280;62853;46.166;3.640;2023-05-01T05:47:29;101314.63;;;12.49;100.00
74103;BME280;62853;46.166;3.640;2023-05-01T05:49:54;101308.84;;;12.58;100.00
74103;BME280;62853;46.166;3.640;2023-05-01T05:52:20;101309.59;;;12.60;100.00
74103;BME280;62853;46.166;3.640;2023-05-01T05:54:46;101313.09;;;12.61;100.00
74103;BME280;62853;46.166;3.640;2023-05-01T05:57:11;101304.66;;;12.70;100.00
74103;BME280;62853;46.166;3.640;2023-05-01T05:59:36;101301.47;;;12.79;100.00
74103;BME280;62853;46.166;3.640;2023-05-01T06:02:02;101307.63;;;12.80;100.00
74103;BME280;62853;46.166;3.640;2023-05-01T06:04:27;101308.22;;;12.85;100.00
74103;BME280;62853;46.166;3.640;2023-05-01T06:06:53;101305.31;;;12.90;100.00
74103;BME280;62853;46.166;3.640;2023-05-01T06:09:18;101292.50;;;12.98;100.00
74103;BME280;62853;46.166;3.640;2023-05-01T06:11:44;101296.69;;;13.02;100.00
74103;BME280;62853;46.166;3.640;2023-05-01T06:14:12;101302.56;;;13.07;100.00
74103;BME280;62853;46.166;3.640;2023-05-01T06:16:38;101303.00;;;13.30;100.00
74103;BME280;62853;46.166;3.640;2023-05-01T06:19:03;101304.50;;;13.50;100.00
74103;BME280;62853;46.166;3.640;2023-05-01T06:21:29;101305.66;;;13.60;100.00
74103;BME280;62853;46.166;3.640;2023-05-01T06:23:56;101307.84;;;13.68;100.00
74103;BME280;62853;46.166;3.640;2023-05-01T06:26:22;101308.59;;;13.70;100.00
74103;BME280;62853;46.166;3.640;2023-05-01T06:28:48;101307.72;;;13.69;100.00
74103;BME280;62853;46.166;3.640;2023-05-01T06:31:15;101302.72;;;13.79;100.00
74103;BME280;62853;46.166;3.640;2023-05-01T06:33:41;101297.38;;;13.95;100.00
74103;BME280;62853;46.166;3.640;2023-05-01T06:36:06;101297.44;;;14.08;100.00
74103;BME280;62853;46.166;3.640;2023-05-01T06:38:31;101295.28;;;14.00;100.00
74103;BME280;62853;46.166;3.640;2023-05-01T06:40:57;101290.63;;;14.04;100.00
74103;BME280;62853;46.166;3.640;2023-05-01T06:43:23;101294.13;;;14.04;100.00
74103;BME280;62853;46.166;3.640;2023-05-01T06:45:52;101290.63;;;14.04;100.00
74103;BME280;62853;46.166;3.640;2023-05-01T06:48:17;101280.03;;;14.04;100.00
74103;BME280;62853;46.166;3.640;2023-05-01T06:50:43;101286.94;;;14.06;100.00
74103;BME280;62853;46.166;3.640;2023-05-01T06:53:08;101288.28;;;14.13;100.00
74103;BME280;62853;46.166;3.640;2023-05-01T06:55:33;101291.84;;;14.27;100.00
74103;BME280;62853;46.166;3.640;2023-05-01T06:57:59;101294.94;;;14.62;100.00
74103;BME280;62853;46.166;3.640;2023-05-01T07:00:24;101296.16;;;14.84;100.00
74103;BME280;62853;46.166;3.640;2023-05-01T07:02:50;101295.47;;;14.95;100.00
74103;BME280;62853;46.166;3.640;2023-05-01T07:05:15;101294.34;;;15.12;100.00
74103;BME280;62853;46.166;3.640;2023-05-01T07:07:41;101292.88;;;15.20;100.00
74103;BME280;62853;46.166;3.640;2023-05-01T07:10:06;101290.78;;;15.25;100.00
74103;BME280;62853;46.166;3.640;2023-05-01T07:12:32;101298.66;;;15.53;100.00
74103;BME280;62853;46.166;3.640;2023-05-01T07:14:57;101293.94;;;15.84;100.00
74103;BME280;62853;46.166;3.640;2023-05-01T07:17:24;101299.66;;;15.90;100.00
74103;BME280;62853;46.166;3.640;2023-05-01T07:19:49;101295.50;;;15.86;100.00
74103;BME280;62853;46.166;3.640;2023-05-01T07:22:15;101296.88;;;16.17;100.00
74103;BME280;62853;46.166;3.640;2023-05-01T07:24:40;101290.97;;;16.62;100.00
74103;BME280;62853;46.166;3.640;2023-05-01T07:27:06;101288.25;;;17.23;100.00
74103;BME280;62853;46.166;3.640;2023-05-01T07:29:31;101283.91;;;17.92;93.02
74103;BME280;62853;46.166;3.640;2023-05-01T07:31:57;101287.31;;;18.71;78.00
74103;BME280;62853;46.166;3.640;2023-05-01T07:34:23;101295.03;;;19.18;80.06
74103;BME280;62853;46.166;3.640;2023-05-01T07:36:48;101291.53;;;19.81;70.26
74103;BME280;62853;46.166;3.640;2023-05-01T07:39:16;101285.56;;;20.39;70.09
74103;BME280;62853;46.166;3.640;2023-05-01T07:41:41;101283.53;;;20.91;65.49
74103;BME280;62853;46.166;3.640;2023-05-01T07:44:07;101291.56;;;20.91;69.67
74103;BME280;62853;46.166;3.640;2023-05-01T07:46:33;101289.72;;;20.92;61.61
74103;BME280;62853;46.166;3.640;2023-05-01T07:48:59;101283.38;;;21.12;62.55
74103;BME280;62853;46.166;3.640;2023-05-01T07:51:25;101283.22;;;22.46;59.04
74103;BME280;62853;46.166;3.640;2023-05-01T07:53:50;101274.19;;;23.98;55.12
74103;BME280;62853;46.166;3.640;2023-05-01T07:56:18;101280.50;;;24.90;49.57
74103;BME280;62853;46.166;3.640;2023-05-01T07:58:46;101275.25;;;25.62;48.63
74103;BME280;62853;46.166;3.640;2023-05-01T08:01:12;101270.88;;;26.41;43.18
74103;BME280;62853;46.166;3.640;2023-05-01T08:03:37;101271.47;;;25.80;45.31
74103;BME280;62853;46.166;3.640;2023-05-01T08:06:03;101271.97;;;25.84;47.70
74103;BME280;62853;46.166;3.640;2023-05-01T08:08:29;101257.63;;;26.31;41.64
74103;BME280;62853;46.166;3.640;2023-05-01T08:10:54;101256.34;;;26.73;44.00
74103;BME280;62853;46.166;3.640;2023-05-01T08:13:20;101257.69;;;26.46;43.56
74103;BME280;62853;46.166;3.640;2023-05-01T08:15:46;101260.81;;;25.39;43.08
74103;BME280;62853;46.166;3.640;2023-05-01T08:18:12;101266.50;;;24.62;43.49
74103;BME280;62853;46.166;3.640;2023-05-01T08:20:43;101257.75;;;25.09;44.94
74103;BME280;62853;46.166;3.640;2023-05-01T08:23:09;101263.47;;;24.65;46.77
74103;BME280;62853;46.166;3.640;2023-05-01T08:25:35;101253.69;;;25.54;45.19
74103;BME280;62853;46.166;3.640;2023-05-01T08:28:00;101257.34;;;25.70;44.10
74103;BME280;62853;46.166;3.640;2023-05-01T08:30:26;101258.47;;;24.95;45.00
74103;BME280;62853;46.166;3.640;2023-05-01T08:32:51;101258.13;;;24.14;46.59
74103;BME280;62853;46.166;3.640;2023-05-01T08:35:17;101260.50;;;23.56;47.50
74103;BME280;62853;46.166;3.640;2023-05-01T08:37:42;101262.59;;;23.18;48.50
74103;BME280;62853;46.166;3.640;2023-05-01T08:40:08;101257.31;;;22.91;48.86
74103;BME280;62853;46.166;3.640;2023-05-01T08:42:35;101257.78;;;23.04;49.72
74103;BME280;62853;46.166;3.640;2023-05-01T08:45:02;101260.84;;;22.73;48.73
74103;BME280;62853;46.166;3.640;2023-05-01T08:47:29;101262.53;;;22.56;47.67
74103;BME280;62853;46.166;3.640;2023-05-01T08:49:56;101265.94;;;22.31;51.54
74103;BME280;62853;46.166;3.640;2023-05-01T08:52:25;101267.94;;;22.28;52.92
74103;BME280;62853;46.166;3.640;2023-05-01T08:54:53;101264.69;;;21.97;48.52
74103;BME280;62853;46.166;3.640;2023-05-01T08:57:21;101268.53;;;21.95;49.07
74103;BME280;62853;46.166;3.640;2023-05-01T08:59:47;101268.22;;;21.98;47.42
74103;BME280;62853;46.166;3.640;2023-05-01T09:02:14;101268.72;;;22.11;48.49
74103;BME280;62853;46.166;3.640;2023-05-01T09:04:40;101265.53;;;22.53;53.69
74103;BME280;62853;46.166;3.640;2023-05-01T09:07:07;101274.94;;;22.39;51.71
74103;BME280;62853;46.166;3.640;2023-05-01T09:09:35;101269.38;;;22.23;52.41
74103;BME280;62853;46.166;3.640;2023-05-01T09:12:26;101273.88;;;21.95;51.66
74103;BME280;62853;46.166;3.640;2023-05-01T09:14:55;101261.72;;;22.00;53.61
74103;BME280;62853;46.166;3.640;2023-05-01T09:17:22;101262.78;;;22.07;53.57
74103;BME280;62853;46.166;3.640;2023-05-01T09:19:49;101261.91;;;22.17;52.87
74103;BME280;62853;46.166;3.640;2023-05-01T09:22:16;101264.34;;;22.10;49.94
74103;BME280;62853;46.166;3.640;2023-05-01T09:24:45;101267.28;;;22.17;50.93
74103;BME280;62853;46.166;3.640;2023-05-01T09:27:12;101268.13;;;21.89;51.94
74103;BME280;62853;46.166;3.640;2023-05-01T09:29:41;101269.47;;;21.66;54.19
74103;BME280;62853;46.166;3.640;2023-05-01T09:32:25;101266.25;;;21.62;53.35
74103;BME280;62853;46.166;3.640;2023-05-01T09:34:53;101263.16;;;21.37;53.01
74103;BME280;62853;46.166;3.640;2023-05-01T09:37:32;101264.75;;;21.30;56.49
74103;BME280;62853;46.166;3.640;2023-05-01T09:42:33;101256.72;;;21.11;56.21
74103;BME280;62853;46.166;3.640;2023-05-01T09:45:01;101256.88;;;20.99;56.12
74103;BME280;62853;46.166;3.640;2023-05-01T09:47:29;101259.72;;;20.98;57.06
74103;BME280;62853;46.166;3.640;2023-05-01T09:49:58;101265.47;;;20.93;56.84
74103;BME280;62853;46.166;3.640;2023-05-01T09:52:28;101250.41;;;21.02;54.78
74103;BME280;62853;46.166;3.640;2023-05-01T09:55:16;101265.00;;;21.47;57.67
74103;BME280;62853;46.166;3.640;2023-05-01T09:57:45;101259.34;;;21.50;56.20
74103;BME280;62853;46.166;3.640;2023-05-01T10:00:12;101264.16;;;21.56;54.06
74103;BME280;62853;46.166;3.640;2023-05-01T10:02:40;101263.47;;;21.82;57.73
74103;BME280;62853;46.166;3.640;2023-05-01T10:05:08;101261.66;;;21.82;53.76
74103;BME280;62853;46.166;3.640;2023-05-01T10:07:33;101268.53;;;21.95;57.72
74103;BME280;62853;46.166;3.640;2023-05-01T10:10:19;101261.53;;;22.11;52.59
74103;BME280;62853;46.166;3.640;2023-05-01T10:12:48;101260.88;;;22.00;49.19
74103;BME280;62853;46.166;3.640;2023-05-01T10:15:14;101267.81;;;22.20;54.97
74103;BME280;62853;46.166;3.640;2023-05-01T10:17:43;101255.38;;;22.19;51.37
74103;BME280;62853;46.166;3.640;2023-05-01T10:20:10;101257.53;;;22.16;52.25
74103;BME280;62853;46.166;3.640;2023-05-01T10:22:39;101258.28;;;22.36;54.90
74103;BME280;62853;46.166;3.640;2023-05-01T10:25:11;101272.97;;;22.41;53.66
74103;BME280;62853;46.166;3.640;2023-05-01T10:27:38;101266.69;;;22.69;49.91
74103;BME280;62853;46.166;3.640;2023-05-01T10:30:06;101263.53;;;22.73;50.12
74103;BME280;62853;46.166;3.640;2023-05-01T10:32:35;101264.75;;;22.61;48.04
74103;BME280;62853;46.166;3.640;2023-05-01T10:35:07;101268.72;;;22.39;52.62
74103;BME280;62853;46.166;3.640;2023-05-01T10:37:58;101266.31;;;22.63;54.44
74103;BME280;62853;46.166;3.640;2023-05-01T10:40:46;101278.63;;;22.56;56.28
74103;BME280;62853;46.166;3.640;2023-05-01T10:43:25;101274.19;;;22.47;54.37
74103;BME280;62853;46.166;3.640;2023-05-01T10:45:54;101278.16;;;22.43;56.17
74103;BME280;62853;46.166;3.640;2023-05-01T10:51:12;101275.16;;;22.28;52.67
74103;BME280;62853;46.166;3.640;2023-05-01T10:53:39;101277.56;;;22.21;54.27
74103;BME280;62853;46.166;3.640;2023-05-01T11:03:53;101284.44;;;21.59;54.66
74103;BME280;62853;46.166;3.640;2023-05-01T11:06:18;101277.81;;;21.53;56.55
74103;BME280;62853;46.166;3.640;2023-05-01T11:08:44;101281.06;;;21.57;52.74
74103;BME280;62853;46.166;3.640;2023-05-01T11:26:50;101298.59;;;20.22;58.96
74103;BME280;62853;46.166;3.640;2023-05-01T11:29:16;101292.97;;;19.85;59.71
74103;BME280;62853;46.166;3.640;2023-05-01T11:31:46;101297.97;;;19.57;65.99
74103;BME280;62853;46.166;3.640;2023-05-01T11:34:12;101292.38;;;19.39;63.71
74103;BME280;62853;46.166;3.640;2023-05-01T11:36:49;101296.53;;;19.32;65.39
74103;BME280;62853;46.166;3.640;2023-05-01T11:39:15;101291.19;;;19.32;65.08
74103;BME280;62853;46.166;3.640;2023-05-01T11:41:43;101292.44;;;19.49;69.82
74103;BME280;62853;46.166;3.640;2023-05-01T11:44:16;101291.91;;;19.55;63.90
74103;BME280;62853;46.166;3.640;2023-05-01T11:46:42;101289.81;;;19.80;59.08
74103;BME280;62853;46.166;3.640;2023-05-01T11:49:07;101288.38;;;20.06;70.26
74103;BME280;62853;46.166;3.640;2023-05-01T11:51:34;101294.69;;;20.36;61.92
74103;BME280;62853;46.166;3.640;2023-05-01T11:54:04;101290.69;;;20.71;69.54
74103;BME280;62853;46.166;3.640;2023-05-01T11:56:30;101283.34;;;20.93;65.65
74103;BME280;62853;46.166;3.640;2023-05-01T11:58:57;101281.25;;;21.06;61.64
74103;BME280;62853;46.166;3.640;2023-05-01T12:01:37;101285.63;;;21.07;67.55
74103;BME280;62853;46.166;3.640;2023-05-01T12:04:08;101290.16;;;21.07;61.58
74103;BME280;62853;46.166;3.640;2023-05-01T12:06:38;101286.91;;;21.03;59.55
74103;BME280;62853;46.166;3.640;2023-05-01T12:09:15;101280.09;;;21.38;60.26
74103;BME280;62853;46.166;3.640;2023-05-01T12:11:45;101282.47;;;21.41;58.91
74103;BME280;62853;46.166;3.640;2023-05-01T12:14:13;101284.19;;;21.52;69.49
74103;BME280;62853;46.166;3.640;2023-05-01T12:16:39;101270.63;;;21.44;63.08
74103;BME280;62853;46.166;3.640;2023-05-01T12:19:08;101271.78;;;21.31;54.13
74103;BME280;62853;46.166;3.640;2023-05-01T12:21:35;101276.31;;;21.21;56.26
74103;BME280;62853;46.166;3.640;2023-05-01T12:24:15;101275.78;;;20.98;55.09
74103;BME280;62853;46.166;3.640;2023-05-01T12:26:42;101270.97;;;21.02;56.69
74103;BME280;62853;46.166;3.640;2023-05-01T12:29:08;101282.38;;;21.04;57.70
74103;BME280;62853;46.166;3.640;2023-05-01T12:31:35;101280.25;;;20.88;61.21
74103;BME280;62853;46.166;3.640;2023-05-01T12:34:04;101284.78;;;20.87;59.27
74103;BME280;62853;46.166;3.640;2023-05-01T12:36:34;101274.06;;;20.77;58.25
74103;BME280;62853;46.166;3.640;2023-05-01T12:39:06;101270.81;;;20.64;60.99
74103;BME280;62853;46.166;3.640;2023-05-01T12:43:57;101282.72;;;20.31;56.76
74103;BME280;62853;46.166;3.640;2023-05-01T12:46:22;101284.78;;;20.17;57.89
74103;BME280;62853;46.166;3.640;2023-05-01T12:48:48;101295.53;;;19.96;58.67
74103;BME280;62853;46.166;3.640;2023-05-01T12:51:20;101294.63;;;19.86;58.73
74103;BME280;62853;46.166;3.640;2023-05-01T12:53:47;101287.16;;;19.80;57.41
74103;BME280;62853;46.166;3.640;2023-05-01T12:56:23;101294.19;;;19.81;56.57
74103;BME280;62853;46.166;3.640;2023-05-01T12:58:50;101295.09;;;19.91;60.65
74103;BME280;62853;46.166;3.640;2023-05-01T13:01:27;101292.00;;;19.96;57.29
74103;BME280;62853;46.166;3.640;2023-05-01T13:03:53;101290.09;;;19.77;56.20
74103;BME280;62853;46.166;3.640;2023-05-01T13:06:20;101289.38;;;19.75;58.50
74103;BME280;62853;46.166;3.640;2023-05-01T13:08:47;101288.91;;;19.91;58.03
74103;BME280;62853;46.166;3.640;2023-05-01T13:11:16;101297.31;;;19.86;57.70
74103;BME280;62853;46.166;3.640;2023-05-01T13:13:43;101295.63;;;19.85;57.51
74103;BME280;62853;46.166;3.640;2023-05-01T13:16:14;101299.19;;;19.74;58.27
74103;BME280;62853;46.166;3.640;2023-05-01T13:18:50;101295.63;;;19.64;59.43
74103;BME280;62853;46.166;3.640;2023-05-01T13:21:32;101300.31;;;19.72;63.07
74103;BME280;62853;46.166;3.640;2023-05-01T13:23:59;101299.09;;;19.76;69.17
74103;BME280;62853;46.166;3.640;2023-05-01T13:26:28;101300.13;;;19.84;67.42
74103;BME280;62853;46.166;3.640;2023-05-01T13:28:56;101294.09;;;19.71;63.07
74103;BME280;62853;46.166;3.640;2023-05-01T13:31:23;101287.16;;;19.59;57.65
74103;BME280;62853;46.166;3.640;2023-05-01T13:33:52;101294.03;;;19.61;61.27